sensor_id;sensor_type;location;lat;lon;timestamp;pressure;altitude;pressure_sealevel;temperature;humidity
20622;BME280;10470;42.670;23.354;2022-07-01T00:00:47;94828.53;;;23.34;100.00
20622;BME280;10470;42.670;23.354;2022-07-01T00:03:12;94827.63;;;23.45;100.00
20622;BME280;10470;42.670;23.354;2022-07-01T00:05:38;94828.47;;;23.40;100.00
20622;BME280;10470;42.670;23.354;2022-07-01T00:08:04;94818.81;;;23.41;100.00
20622;BME280;10470;42.670;23.354;2022-07-01T00:10:29;94822.69;;;23.38;100.00
20622;BME280;10470;42.670;23.354;2022-07-01T00:12:55;94835.00;;;23.43;100.00
20622;BME280;10470;42.670;23.354;2022-07-01T00:15:20;94837.66;;;23.35;100.00
20622;BME280;10470;42.670;23.354;2022-07-01T00:17:48;94833.13;;;23.32;100.00
20622;BME280;10470;42.670;23.354;2022-07-01T00:20:13;94839.94;;;23.18;100.00
20622;BME280;10470;42.670;23.354;2022-07-01T00:22:40;94826.78;;;23.18;100.00
20622;BME280;10470;42.670;23.354;2022-07-01T00:25:06;94838.03;;;23.26;100.00
20622;BME280;10470;42.670;23.354;2022-07-01T00:27:32;94849.28;;;23.33;100.00
20622;BME280;10470;42.670;23.354;2022-07-01T00:29:57;94856.44;;;22.97;100.00
20622;BME280;10470;42.670;23.354;2022-07-01T00:32:23;94851.81;;;23.18;100.00
20622;BME280;10470;42.670;23.354;2022-07-01T00:34:49;94843.56;;;23.13;100.00
20622;BME280;10470;42.670;23.354;2022-07-01T00:37:14;94838.03;;;23.26;100.00
20622;BME280;10470;42.670;23.354;2022-07-01T00:39:40;94830.13;;;23.17;100.00
20622;BME280;10470;42.670;23.354;2022-07-01T00:42:06;94840.19;;;23.01;100.00
20622;BME280;10470;42.670;23.354;2022-07-01T00:44:31;94842.22;;;23.19;100.00
20622;BME280;10470;42.670;23.354;2022-07-01T00:47:00;94844.03;;;23.17;100.00
20622;BME280;10470;42.670;23.354;2022-07-01T00:49:27;94846.06;;;23.29;100.00
20622;BME280;10470;42.670;23.354;2022-07-01T00:51:54;94853.38;;;23.32;100.00
20622;BME280;10470;42.670;23.354;2022-07-01T00:54:20;94840.34;;;23.08;100.00
20622;BME280;10470;42.670;23.354;2022-07-01T00:56:47;94843.47;;;23.18;100.00
20622;BME280;10470;42.670;23.354;2022-07-01T00:59:14;94841.63;;;23.07;100.00
20622;BME280;10470;42.670;23.354;2022-07-01T01:01:40;94849.97;;;23.07;100.00
20622;BME280;10470;42.670;23.354;2022-07-01T01:04:06;94846.88;;;23.11;100.00
20622;BME280;10470;42.670;23.354;2022-07-01T01:06:31;94847.94;;;22.89;100.00
20622;BME280;10470;42.670;23.354;2022-07-01T01:08:57;94847.66;;;22.74;100.00
20622;BME280;10470;42.670;23.354;2022-07-01T01:11:23;94848.84;;;22.97;100.00
20622;BME280;10470;42.670;23.354;2022-07-01T01:13:48;94854.34;;;22.84;100.00
20622;BME280;10470;42.670;23.354;2022-07-01T01:16:21;94856.72;;;22.93;100.00
20622;BME280;10470;42.670;23.354;2022-07-01T01:18:48;94853.06;;;23.04;100.00
20622;BME280;10470;42.670;23.354;2022-07-01T01:21:14;94847.56;;;22.79;100.00
20622;BME280;10470;42.670;23.354;2022-07-01T01:23:40;94848.72;;;22.71;100.00
20622;BME280;10470;42.670;23.354;2022-07-01T01:26:17;94843.75;;;22.63;100.00
20622;BME280;10470;42.670;23.354;2022-07-01T01:28:43;94843.00;;;22.82;100.00
20622;BME280;10470;42.670;23.354;2022-07-01T01:31:09;94845.47;;;22.48;100.00
20622;BME280;10470;42.670;23.354;2022-07-01T01:33:36;94849.84;;;22.43;100.00
20622;BME280;10470;42.670;23.354;2022-07-01T01:36:02;94857.09;;;22.46;100.00
20622;BME280;10470;42.670;23.354;2022-07-01T01:38:28;94863.50;;;22.60;100.00
20622;BME280;10470;42.670;23.354;2022-07-01T01:40:53;94860.66;;;22.65;100.00
20622;BME280;10470;42.670;23.354;2022-07-01T01:43:20;94863.50;;;22.60;100.00
20622;BME280;10470;42.670;23.354;2022-07-01T01:45:46;94852.53;;;22.49;100.00
20622;BME280;10470;42.670;23.354;2022-07-01T01:48:11;94864.19;;;22.47;100.00
20622;BME280;10470;42.670;23.354;2022-07-01T01:50:37;94856.50;;;22.34;100.00
20622;BME280;10470;42.670;23.354;2022-07-01T01:53:02;94855.22;;;22.54;100.00
20622;BME280;10470;42.670;23.354;2022-07-01T01:55:28;94852.09;;;22.44;100.00
20622;BME280;10470;42.670;23.354;2022-07-01T01:57:53;94850.50;;;22.49;100.00
20622;BME280;10470;42.670;23.354;2022-07-01T02:00:19;94860.38;;;22.25;100.00
20622;BME280;10470;42.670;23.354;2022-07-01T02:02:44;94853.47;;;22.13;100.00
20622;BME280;10470;42.670;23.354;2022-07-01T02:05:11;94864.91;;;22.04;100.00
20622;BME280;10470;42.670;23.354;2022-07-01T02:07:37;94860.56;;;21.84;100.00
20622;BME280;10470;42.670;23.354;2022-07-01T02:10:03;94871.56;;;22.20;100.00
20622;BME280;10470;42.670;23.354;2022-07-01T02:12:29;94870.69;;;22.31;100.00
20622;BME280;10470;42.670;23.354;2022-07-01T02:14:54;94867.97;;;22.25;100.00
20622;BME280;10470;42.670;23.354;2022-07-01T02:17:20;94876.59;;;21.97;100.00
20622;BME280;10470;42.670;23.354;2022-07-01T02:19:45;94874.75;;;21.56;100.00
20622;BME280;10470;42.670;23.354;2022-07-01T02:22:11;94870.97;;;21.78;100.00
20622;BME280;10470;42.670;23.354;2022-07-01T02:24:36;94878.03;;;21.79;100.00
20622;BME280;10470;42.670;23.354;2022-07-01T02:27:02;94877.28;;;21.78;100.00
20622;BME280;10470;42.670;23.354;2022-07-01T02:29:28;94869.25;;;21.75;100.00
20622;BME280;10470;42.670;23.354;2022-07-01T02:31:53;94887.09;;;21.55;100.00
20622;BME280;10470;42.670;23.354;2022-07-01T02:34:19;94881.53;;;21.55;100.00
20622;BME280;10470;42.670;23.354;2022-07-01T02:36:44;94896.19;;;21.50;100.00
20622;BME280;10470;42.670;23.354;2022-07-01T02:39:10;94888.13;;;21.52;100.00
20622;BME280;10470;42.670;23.354;2022-07-01T02:41:35;94897.25;;;21.47;100.00
20622;BME280;10470;42.670;23.354;2022-07-01T02:44:20;94902.34;;;21.67;100.00
20622;BME280;10470;42.670;23.354;2022-07-01T02:46:46;94901.66;;;21.61;100.00
20622;BME280;10470;42.670;23.354;2022-07-01T02:49:11;94891.81;;;21.60;100.00
20622;BME280;10470;42.670;23.354;2022-07-01T02:51:37;94904.09;;;21.34;100.00
20622;BME280;10470;42.670;23.354;2022-07-01T02:54:02;94909.81;;;21.48;100.00
20622;BME280;10470;42.670;23.354;2022-07-01T02:56:30;94907.59;;;21.46;100.00
20622;BME280;10470;42.670;23.354;2022-07-01T02:58:55;94905.09;;;21.37;100.00
20622;BME280;10470;42.670;23.354;2022-07-01T03:01:21;94921.50;;;21.41;100.00
20622;BME280;10470;42.670;23.354;2022-07-01T03:03:46;94906.41;;;20.94;100.00
20622;BME280;10470;42.670;23.354;2022-07-01T03:06:12;94918.38;;;21.14;100.00
20622;BME280;10470;42.670;23.354;2022-07-01T03:08:37;94918.81;;;21.24;100.00
20622;BME280;10470;42.670;23.354;2022-07-01T03:11:03;94913.59;;;21.14;100.00
20622;BME280;10470;42.670;23.354;2022-07-01T03:13:28;94935.34;;;21.41;100.00
20622;BME280;10470;42.670;23.354;2022-07-01T03:15:54;94932.59;;;21.41;100.00
20622;BME280;10470;42.670;23.354;2022-07-01T03:18:19;94939.31;;;21.51;100.00
20622;BME280;10470;42.670;23.354;2022-07-01T03:20:45;94932.97;;;21.20;100.00
20622;BME280;10470;42.670;23.354;2022-07-01T03:23:10;94940.91;;;21.41;100.00
20622;BME280;10470;42.670;23.354;2022-07-01T03:25:36;94922.94;;;21.47;100.00
20622;BME280;10470;42.670;23.354;2022-07-01T03:28:02;94931.06;;;21.40;100.00
20622;BME280;10470;42.670;23.354;2022-07-01T03:30:28;94927.28;;;21.37;100.00
20622;BME280;10470;42.670;23.354;2022-07-01T03:32:54;94937.53;;;21.53;100.00
20622;BME280;10470;42.670;23.354;2022-07-01T03:35:19;94933.84;;;21.40;100.00
20622;BME280;10470;42.670;23.354;2022-07-01T03:38:03;94938.03;;;21.10;100.00
20622;BME280;10470;42.670;23.354;2022-07-01T03:40:30;94943.50;;;21.22;100.00
20622;BME280;10470;42.670;23.354;2022-07-01T03:42:56;94932.75;;;21.12;100.00
20622;BME280;10470;42.670;23.354;2022-07-01T03:45:21;94942.09;;;21.45;100.00
20622;BME280;10470;42.670;23.354;2022-07-01T03:47:47;94934.84;;;21.72;100.00
20622;BME280;10470;42.670;23.354;2022-07-01T03:50:14;94930.81;;;21.98;100.00
20622;BME280;10470;42.670;23.354;2022-07-01T03:52:40;94935.38;;;21.95;100.00
20622;BME280;10470;42.670;23.354;2022-07-01T03:55:08;94929.78;;;22.01;100.00
20622;BME280;10470;42.670;23.354;2022-07-01T03:57:34;94927.06;;;21.95;100.00
20622;BME280;10470;42.670;23.354;2022-07-01T03:59:59;94927.53;;;21.99;100.00
20622;BME280;10470;42.670;23.354;2022-07-01T04:02:25;94939.34;;;22.06;100.00
20622;BME280;10470;42.670;23.354;2022-07-01T04:04:50;94936.41;;;22.22;100.00
20622;BME280;10470;42.670;23.354;2022-07-01T04:07:16;94933.16;;;22.18;100.00
20622;BME280;10470;42.670;23.354;2022-07-01T04:09:42;94939.91;;;22.23;100.00
20622;BME280;10470;42.670;23.354;2022-07-01T04:12:09;94941.56;;;22.07;100.00
20622;BME280;10470;42.670;23.354;2022-07-01T04:14:36;94949.22;;;22.01;100.00
20622;BME280;10470;42.670;23.354;2022-07-01T04:17:02;94949.22;;;22.25;100.00
20622;BME280;10470;42.670;23.354;2022-07-01T04:19:28;94953.91;;;22.12;100.00
20622;BME280;10470;42.670;23.354;2022-07-01T04:21:53;94962.13;;;22.23;100.00
20622;BME280;10470;42.670;23.354;2022-07-01T04:24:37;94944.22;;;22.24;100.00
20622;BME280;10470;42.670;23.354;2022-07-01T04:27:03;94950.38;;;22.36;100.00
20622;BME280;10470;42.670;23.354;2022-07-01T04:29:28;94954.16;;;22.38;100.00
20622;BME280;10470;42.670;23.354;2022-07-01T04:31:55;94961.81;;;22.02;100.00
20622;BME280;10470;42.670;23.354;2022-07-01T04:34:21;94956.16;;;22.38;100.00
20622;BME280;10470;42.670;23.354;2022-07-01T04:36:47;94956.97;;;22.57;100.00
20622;BME280;10470;42.670;23.354;2022-07-01T04:39:12;94952.50;;;22.49;100.00
20622;BME280;10470;42.670;23.354;2022-07-01T04:41:38;94896.88;;;22.11;100.00
20622;BME280;10470;42.670;23.354;2022-07-01T04:44:22;94957.66;;;22.63;100.00
20622;BME280;10470;42.670;23.354;2022-07-01T04:46:47;94956.09;;;22.68;100.00
20622;BME280;10470;42.670;23.354;2022-07-01T04:49:13;94957.81;;;22.71;100.00
20622;BME280;10470;42.670;23.354;2022-07-01T04:51:42;94961.56;;;22.74;100.00
20622;BME280;10470;42.670;23.354;2022-07-01T04:54:08;94960.75;;;22.79;100.00
20622;BME280;10470;42.670;23.354;2022-07-01T04:56:35;94963.06;;;22.75;100.00
20622;BME280;10470;42.670;23.354;2022-07-01T04:59:02;94957.56;;;22.69;100.00
20622;BME280;10470;42.670;23.354;2022-07-01T05:01:27;94948.41;;;22.55;100.00
20622;BME280;10470;42.670;23.354;2022-07-01T05:03:56;94957.91;;;22.84;100.00
20622;BME280;10470;42.670;23.354;2022-07-01T05:06:22;94954.69;;;22.99;100.00
20622;BME280;10470;42.670;23.354;2022-07-01T05:08:48;94954.06;;;22.87;100.00
20622;BME280;10470;42.670;23.354;2022-07-01T05:11:13;94954.84;;;23.07;100.00
20622;BME280;10470;42.670;23.354;2022-07-01T05:13:39;94955.56;;;23.26;100.00
20622;BME280;10470;42.670;23.354;2022-07-01T05:16:05;94949.66;;;23.17;100.00
20622;BME280;10470;42.670;23.354;2022-07-01T05:18:31;94960.31;;;23.50;100.00
20622;BME280;10470;42.670;23.354;2022-07-01T05:21:15;94957.94;;;23.54;100.00
20622;BME280;10470;42.670;23.354;2022-07-01T05:24:00;94961.59;;;23.63;100.00
20622;BME280;10470;42.670;23.354;2022-07-01T05:26:25;94964.72;;;23.59;100.00
20622;BME280;10470;42.670;23.354;2022-07-01T05:28:52;94960.75;;;23.68;100.00
20622;BME280;10470;42.670;23.354;2022-07-01T05:31:18;94962.75;;;23.54;100.00
20622;BME280;10470;42.670;23.354;2022-07-01T05:33:44;94954.56;;;23.62;100.00
20622;BME280;10470;42.670;23.354;2022-07-01T05:36:10;94953.03;;;23.61;100.00
20622;BME280;10470;42.670;23.354;2022-07-01T05:38:36;94938.66;;;23.43;100.00
20622;BME280;10470;42.670;23.354;2022-07-01T05:41:02;94960.03;;;23.35;100.00
20622;BME280;10470;42.670;23.354;2022-07-01T05:43:27;94955.53;;;23.64;100.00
20622;BME280;10470;42.670;23.354;2022-07-01T05:45:54;94961.25;;;23.72;100.00
20622;BME280;10470;42.670;23.354;2022-07-01T05:48:19;94948.31;;;23.88;100.00
20622;BME280;10470;42.670;23.354;2022-07-01T05:50:45;94955.09;;;23.92;100.00
20622;BME280;10470;42.670;23.354;2022-07-01T05:53:10;94957.16;;;24.18;100.00
20622;BME280;10470;42.670;23.354;2022-07-01T05:55:36;94961.13;;;24.23;100.00
20622;BME280;10470;42.670;23.354;2022-07-01T05:58:02;94959.47;;;23.88;100.00
20622;BME280;10470;42.670;23.354;2022-07-01T06:00:28;94956.94;;;24.16;100.00
20622;BME280;10470;42.670;23.354;2022-07-01T06:02:53;94954.38;;;24.05;100.00
20622;BME280;10470;42.670;23.354;2022-07-01T06:05:19;94955.75;;;24.38;100.00
20622;BME280;10470;42.670;23.354;2022-07-01T06:07:45;94968.66;;;24.55;100.00
20622;BME280;10470;42.670;23.354;2022-07-01T06:10:11;94950.00;;;24.36;100.00
20622;BME280;10470;42.670;23.354;2022-07-01T06:12:40;94959.63;;;24.22;100.00
20622;BME280;10470;42.670;23.354;2022-07-01T06:15:07;94964.56;;;24.29;100.00
20622;BME280;10470;42.670;23.354;2022-07-01T06:17:37;94970.34;;;24.31;100.00
20622;BME280;10470;42.670;23.354;2022-07-01T06:20:03;94953.66;;;24.45;100.00
20622;BME280;10470;42.670;23.354;2022-07-01T06:22:29;94972.19;;;24.42;100.00
20622;BME280;10470;42.670;23.354;2022-07-01T06:24:54;94974.34;;;24.62;100.00
20622;BME280;10470;42.670;23.354;2022-07-01T06:27:20;94970.13;;;24.82;100.00
20622;BME280;10470;42.670;23.354;2022-07-01T06:29:45;94981.09;;;24.80;100.00
20622;BME280;10470;42.670;23.354;2022-07-01T06:32:11;94980.03;;;24.70;100.00
20622;BME280;10470;42.670;23.354;2022-07-01T06:34:36;94970.31;;;24.98;100.00
20622;BME280;10470;42.670;23.354;2022-07-01T06:37:02;94970.97;;;25.04;100.00
20622;BME280;10470;42.670;23.354;2022-07-01T06:39:28;94975.03;;;25.16;100.00
20622;BME280;10470;42.670;23.354;2022-07-01T06:41:55;94983.25;;;25.35;100.00
20622;BME280;10470;42.670;23.354;2022-07-01T06:44:20;94980.28;;;25.20;100.00
20622;BME280;10470;42.670;23.354;2022-07-01T06:46:46;94960.84;;;25.27;100.00
20622;BME280;10470;42.670;23.354;2022-07-01T06:49:12;94969.53;;;25.37;100.00
20622;BME280;10470;42.670;23.354;2022-07-01T06:51:37;94969.03;;;25.46;100.00
20622;BME280;10470;42.670;23.354;2022-07-01T06:54:03;94961.47;;;25.34;100.00
20622;BME280;10470;42.670;23.354;2022-07-01T06:56:29;94971.59;;;25.23;100.00
20622;BME280;10470;42.670;23.354;2022-07-01T06:58:55;94971.09;;;25.46;100.00
20622;BME280;10470;42.670;23.354;2022-07-01T07:01:20;94975.38;;;25.47;100.00
20622;BME280;10470;42.670;23.354;2022-07-01T07:03:46;94965.78;;;25.56;100.00
20622;BME280;10470;42.670;23.354;2022-07-01T07:06:11;94977.69;;;25.35;100.00
20622;BME280;10470;42.670;23.354;2022-07-01T07:08:37;94975.13;;;25.24;100.00
20622;BME280;10470;42.670;23.354;2022-07-01T07:11:03;94968.81;;;25.44;100.00
20622;BME280;10470;42.670;23.354;2022-07-01T07:13:29;94978.03;;;25.53;100.00
20622;BME280;10470;42.670;23.354;2022-07-01T07:15:55;94975.03;;;25.50;100.00
20622;BME280;10470;42.670;23.354;2022-07-01T07:18:21;94970.81;;;25.57;100.00
20622;BME280;10470;42.670;23.354;2022-07-01T07:20:46;94980.84;;;25.74;100.00
20622;BME280;10470;42.670;23.354;2022-07-01T07:23:16;94976.50;;;25.86;100.00
20622;BME280;10470;42.670;23.354;2022-07-01T07:25:41;94977.66;;;25.69;100.00
20622;BME280;10470;42.670;23.354;2022-07-01T07:28:07;94975.06;;;25.71;100.00
20622;BME280;10470;42.670;23.354;2022-07-01T07:30:32;94981.41;;;25.93;100.00
20622;BME280;10470;42.670;23.354;2022-07-01T07:32:58;94984.00;;;26.12;100.00
20622;BME280;10470;42.670;23.354;2022-07-01T07:35:24;94969.66;;;25.87;100.00
20622;BME280;10470;42.670;23.354;2022-07-01T07:37:49;94983.13;;;25.96;100.00
20622;BME280;10470;42.670;23.354;2022-07-01T07:40:15;94967.66;;;25.95;100.00
20622;BME280;10470;42.670;23.354;2022-07-01T07:42:45;94965.56;;;25.88;100.00
20622;BME280;10470;42.670;23.354;2022-07-01T07:45:11;94949.59;;;25.96;100.00
20622;BME280;10470;42.670;23.354;2022-07-01T07:47:41;94974.81;;;26.53;100.00
20622;BME280;10470;42.670;23.354;2022-07-01T07:50:07;94969.44;;;26.34;100.00
20622;BME280;10470;42.670;23.354;2022-07-01T07:52:34;94976.19;;;26.39;100.00
20622;BME280;10470;42.670;23.354;2022-07-01T07:55:00;94970.94;;;26.56;100.00
20622;BME280;10470;42.670;23.354;2022-07-01T07:57:25;94970.53;;;26.89;100.00
20622;BME280;10470;42.670;23.354;2022-07-01T07:59:51;94971.88;;;27.03;100.00
20622;BME280;10470;42.670;23.354;2022-07-01T08:02:16;94972.34;;;26.78;100.00
20622;BME280;10470;42.670;23.354;2022-07-01T08:04:42;94974.13;;;27.05;100.00
20622;BME280;10470;42.670;23.354;2022-07-01T08:07:07;94968.84;;;27.22;100.00
20622;BME280;10470;42.670;23.354;2022-07-01T08:09:33;94966.25;;;27.32;100.00
20622;BME280;10470;42.670;23.354;2022-07-01T08:12:00;94962.31;;;27.27;100.00
20622;BME280;10470;42.670;23.354;2022-07-01T08:14:26;94961.25;;;27.45;100.00
20622;BME280;10470;42.670;23.354;2022-07-01T08:16:51;94948.75;;;27.62;100.00
20622;BME280;10470;42.670;23.354;2022-07-01T08:19:17;94952.25;;;27.32;100.00
20622;BME280;10470;42.670;23.354;2022-07-01T08:21:42;94946.25;;;27.20;100.00
20622;BME280;10470;42.670;23.354;2022-07-01T08:24:08;94947.25;;;27.53;100.00
20622;BME280;10470;42.670;23.354;2022-07-01T08:26:33;94945.19;;;27.46;100.00
20622;BME280;10470;42.670;23.354;2022-07-01T08:28:59;94940.00;;;27.50;100.00
20622;BME280;10470;42.670;23.354;2022-07-01T08:31:24;94949.13;;;27.51;100.00
20622;BME280;10470;42.670;23.354;2022-07-01T08:33:50;94947.25;;;27.45;100.00
20622;BME280;10470;42.670;23.354;2022-07-01T08:36:15;94942.38;;;27.38;100.00
20622;BME280;10470;42.670;23.354;2022-07-01T08:38:41;94940.78;;;27.81;100.00
20622;BME280;10470;42.670;23.354;2022-07-01T08:41:06;94948.44;;;27.96;100.00
20622;BME280;10470;42.670;23.354;2022-07-01T08:43:33;94943.78;;;27.91;100.00
20622;BME280;10470;42.670;23.354;2022-07-01T08:46:01;94947.34;;;28.07;100.00
20622;BME280;10470;42.670;23.354;2022-07-01T08:48:28;94942.09;;;28.03;100.00
20622;BME280;10470;42.670;23.354;2022-07-01T08:50:54;94952.94;;;28.07;100.00
20622;BME280;10470;42.670;23.354;2022-07-01T08:53:19;94948.81;;;28.00;100.00
20622;BME280;10470;42.670;23.354;2022-07-01T08:55:45;94947.31;;;28.15;100.00
20622;BME280;10470;42.670;23.354;2022-07-01T08:58:29;94948.06;;;28.23;100.00
20622;BME280;10470;42.670;23.354;2022-07-01T09:01:12;94940.63;;;28.02;100.00
20622;BME280;10470;42.670;23.354;2022-07-01T09:03:38;94943.00;;;28.37;100.00
20622;BME280;10470;42.670;23.354;2022-07-01T09:06:18;94945.81;;;28.06;100.00
20622;BME280;10470;42.670;23.354;2022-07-01T09:08:43;94940.59;;;28.18;100.00
20622;BME280;10470;42.670;23.354;2022-07-01T09:11:17;94944.28;;;28.51;100.00
20622;BME280;10470;42.670;23.354;2022-07-01T09:13:43;94939.94;;;28.81;100.00
20622;BME280;10470;42.670;23.354;2022-07-01T09:16:16;94945.94;;;28.77;100.00
20622;BME280;10470;42.670;23.354;2022-07-01T09:19:02;94944.88;;;28.57;100.00
20622;BME280;10470;42.670;23.354;2022-07-01T09:21:29;94943.25;;;28.94;96.54
20622;BME280;10470;42.670;23.354;2022-07-01T09:23:59;94942.03;;;29.21;100.00
20622;BME280;10470;42.670;23.354;2022-07-01T09:26:27;94937.25;;;28.98;100.00
20622;BME280;10470;42.670;23.354;2022-07-01T09:28:54;94932.72;;;29.10;100.00
20622;BME280;10470;42.670;23.354;2022-07-01T09:31:21;94938.81;;;29.32;97.06
20622;BME280;10470;42.670;23.354;2022-07-01T09:34:02;94936.47;;;29.46;86.94
20622;BME280;10470;42.670;23.354;2022-07-01T09:36:28;94937.34;;;29.56;84.87
20622;BME280;10470;42.670;23.354;2022-07-01T09:38:53;94927.78;;;29.59;79.18
20622;BME280;10470;42.670;23.354;2022-07-01T09:41:23;94936.91;;;29.34;76.31
20622;BME280;10470;42.670;23.354;2022-07-01T09:43:48;94944.16;;;29.78;72.11
20622;BME280;10470;42.670;23.354;2022-07-01T09:46:14;94939.84;;;29.77;63.91
20622;BME280;10470;42.670;23.354;2022-07-01T09:51:06;94930.91;;;29.96;71.68
20622;BME280;10470;42.670;23.354;2022-07-01T09:53:32;94926.72;;;30.04;68.65
20622;BME280;10470;42.670;23.354;2022-07-01T09:55:58;94922.94;;;29.85;68.05
20622;BME280;10470;42.670;23.354;2022-07-01T09:58:24;94919.28;;;29.99;67.13
20622;BME280;10470;42.670;23.354;2022-07-01T10:00:52;94920.69;;;30.33;68.45
20622;BME280;10470;42.670;23.354;2022-07-01T10:03:20;94919.22;;;30.07;69.35
20622;BME280;10470;42.670;23.354;2022-07-01T10:05:50;94920.94;;;30.28;68.32
20622;BME280;10470;42.670;23.354;2022-07-01T10:08:40;94903.81;;;30.08;68.44
20622;BME280;10470;42.670;23.354;2022-07-01T10:14:02;94918.69;;;30.01;64.71
20622;BME280;10470;42.670;23.354;2022-07-01T10:16:29;94919.84;;;30.40;63.53
20622;BME280;10470;42.670;23.354;2022-07-01T10:18:55;94914.25;;;30.15;58.91
20622;BME280;10470;42.670;23.354;2022-07-01T10:21:30;94917.31;;;30.10;59.06
20622;BME280;10470;42.670;23.354;2022-07-01T10:24:13;94910.59;;;30.05;58.56
20622;BME280;10470;42.670;23.354;2022-07-01T10:26:40;94907.44;;;30.26;57.56
20622;BME280;10470;42.670;23.354;2022-07-01T10:29:32;94903.63;;;30.66;58.46
20622;BME280;10470;42.670;23.354;2022-07-01T10:32:48;94899.41;;;30.40;58.48
20622;BME280;10470;42.670;23.354;2022-07-01T10:34:48;94894.03;;;30.86;58.73
20622;BME280;10470;42.670;23.354;2022-07-01T10:37:16;94901.94;;;31.15;56.19
20622;BME280;10470;42.670;23.354;2022-07-01T10:40:03;94894.28;;;30.98;52.70
20622;BME280;10470;42.670;23.354;2022-07-01T10:47:27;94884.53;;;30.82;44.70
20622;BME280;10470;42.670;23.354;2022-07-01T10:49:55;94884.19;;;30.95;44.99
20622;BME280;10470;42.670;23.354;2022-07-01T10:52:21;94875.50;;;30.66;47.07
20622;BME280;10470;42.670;23.354;2022-07-01T10:54:50;94884.34;;;31.78;46.44
20622;BME280;10470;42.670;23.354;2022-07-01T10:57:20;94884.28;;;31.69;45.24
20622;BME280;10470;42.670;23.354;2022-07-01T11:02:38;94884.44;;;32.08;45.88
20622;BME280;10470;42.670;23.354;2022-07-01T11:07:35;94888.13;;;32.01;44.66
20622;BME280;10470;42.670;23.354;2022-07-01T11:10:04;94888.25;;;31.56;43.71
20622;BME280;10470;42.670;23.354;2022-07-01T11:12:30;94878.16;;;31.53;44.87
20622;BME280;10470;42.670;23.354;2022-07-01T11:14:58;94885.34;;;32.10;44.69
20622;BME280;10470;42.670;23.354;2022-07-01T11:17:25;94879.81;;;32.03;44.27
20622;BME280;10470;42.670;23.354;2022-07-01T11:19:58;94883.72;;;31.80;45.09
20622;BME280;10470;42.670;23.354;2022-07-01T11:22:27;94873.97;;;32.86;44.88
20622;BME280;10470;42.670;23.354;2022-07-01T11:24:57;94876.00;;;32.37;44.82
20622;BME280;10470;42.670;23.354;2022-07-01T11:27:23;94872.16;;;33.20;43.84
20622;BME280;10470;42.670;23.354;2022-07-01T11:30:00;94865.28;;;33.23;43.43
20622;BME280;10470;42.670;23.354;2022-07-01T11:32:28;94869.22;;;33.59;42.05
20622;BME280;10470;42.670;23.354;2022-07-01T11:34:54;94862.78;;;33.17;43.38
20622;BME280;10470;42.670;23.354;2022-07-01T11:37:20;94880.22;;;32.84;40.76
20622;BME280;10470;42.670;23.354;2022-07-01T11:40:07;94868.28;;;33.25;40.21
20622;BME280;10470;42.670;23.354;2022-07-01T11:42:34;94871.31;;;33.48;41.48
20622;BME280;10470;42.670;23.354;2022-07-01T11:44:59;94862.72;;;33.78;42.44
20622;BME280;10470;42.670;23.354;2022-07-01T11:47:26;94854.31;;;33.99;41.73
20622;BME280;10470;42.670;23.354;2022-07-01T11:49:52;94853.22;;;34.04;42.26
20622;BME280;10470;42.670;23.354;2022-07-01T11:52:19;94852.50;;;34.04;43.58
20622;BME280;10470;42.670;23.354;2022-07-01T11:54:47;94853.25;;;33.73;42.63
20622;BME280;10470;42.670;23.354;2022-07-01T11:59:45;94847.34;;;33.59;41.46
20622;BME280;10470;42.670;23.354;2022-07-01T12:02:13;94847.66;;;33.85;40.45
20622;BME280;10470;42.670;23.354;2022-07-01T12:04:42;94844.81;;;34.16;39.86
20622;BME280;10470;42.670;23.354;2022-07-01T12:07:09;94848.94;;;35.01;39.60
20622;BME280;10470;42.670;23.354;2022-07-01T12:09:36;94837.88;;;34.29;38.31
20622;BME280;10470;42.670;23.354;2022-07-01T12:12:02;94840.84;;;34.52;38.16
20622;BME280;10470;42.670;23.354;2022-07-01T12:14:31;94843.94;;;34.13;38.91
20622;BME280;10470;42.670;23.354;2022-07-01T12:16:58;94845.88;;;34.75;39.53
20622;BME280;10470;42.670;23.354;2022-07-01T12:21:56;94836.28;;;34.80;38.23
20622;BME280;10470;42.670;23.354;2022-07-01T12:24:25;94831.38;;;33.95;37.97
20622;BME280;10470;42.670;23.354;2022-07-01T12:27:13;94827.97;;;33.97;37.65
20622;BME280;10470;42.670;23.354;2022-07-01T12:32:14;94831.91;;;34.13;38.64
20622;BME280;10470;42.670;23.354;2022-07-01T12:34:52;94837.44;;;34.87;37.94
20622;BME280;10470;42.670;23.354;2022-07-01T12:37:29;94834.69;;;34.77;38.83
20622;BME280;10470;42.670;23.354;2022-07-01T12:40:02;94833.16;;;35.55;37.63
20622;BME280;10470;42.670;23.354;2022-07-01T12:42:34;94835.28;;;35.78;36.27
20622;BME280;10470;42.670;23.354;2022-07-01T12:45:05;94826.47;;;35.38;37.87
20622;BME280;10470;42.670;23.354;2022-07-01T12:47:36;94807.72;;;35.57;37.11
20622;BME280;10470;42.670;23.354;2022-07-01T12:53:07;94819.69;;;36.14;39.00
20622;BME280;10470;42.670;23.354;2022-07-01T12:55:44;94823.53;;;35.72;42.15
20622;BME280;10470;42.670;23.354;2022-07-01T12:58:12;94820.44;;;35.44;42.74
20622;BME280;10470;42.670;23.354;2022-07-01T13:00:39;94815.75;;;34.92;44.69
20622;BME280;10470;42.670;23.354;2022-07-01T13:03:05;94822.91;;;35.50;45.72
20622;BME280;10470;42.670;23.354;2022-07-01T13:05:33;94822.78;;;35.59;45.82
20622;BME280;10470;42.670;23.354;2022-07-01T13:08:00;94824.59;;;36.25;43.66
20622;BME280;10470;42.670;23.354;2022-07-01T13:10:25;94815.25;;;35.40;45.03